createdAt,value
2022-12-03T00:00:43.388Z,25.43
2022-12-03T00:01:45.036Z,22.73
2022-12-03T00:02:46.834Z,23.93
2022-12-03T00:03:48.756Z,22.10
2022-12-03T00:04:50.941Z,20.27
2022-12-03T00:05:52.975Z,21.33
2022-12-03T00:06:54.752Z,21.97
2022-12-03T00:07:56.873Z,22.00
2022-12-03T00:08:58.707Z,21.50
2022-12-03T00:10:00.391Z,21.77
2022-12-03T00:11:02.100Z,22.83
2022-12-03T00:12:04.145Z,22.73
2022-12-03T00:13:05.877Z,24.40
2022-12-03T00:14:07.582Z,24.63
2022-12-03T00:15:10.109Z,21.53
2022-12-03T00:16:11.854Z,26.83
2022-12-03T00:17:13.752Z,23.87
2022-12-03T00:18:15.471Z,26.83
2022-12-03T00:19:17.137Z,25.70
2022-12-03T00:20:21.530Z,25.93
2022-12-03T00:21:24.744Z,27.67
2022-12-03T00:22:26.739Z,27.33
2022-12-03T00:23:28.541Z,25.83
2022-12-03T00:24:30.268Z,24.83
2022-12-03T00:25:32.125Z,27.77
2022-12-03T00:26:33.973Z,26.27
2022-12-03T00:27:35.738Z,25.50
2022-12-03T00:28:37.443Z,28.27
2022-12-03T00:29:39.513Z,26.37
2022-12-03T00:30:41.311Z,27.00
2022-12-03T00:31:45.561Z,23.70
2022-12-03T00:32:47.378Z,20.67
2022-12-03T00:33:50.267Z,21.70
2022-12-03T00:34:52.305Z,23.47
2022-12-03T00:35:54.245Z,28.10
2022-12-03T00:36:56.018Z,26.43
2022-12-03T00:37:57.755Z,27.10
2022-12-03T00:38:59.511Z,24.90
2022-12-03T00:40:02.808Z,23.40
2022-12-03T00:41:04.625Z,26.23
2022-12-03T00:42:06.370Z,25.53
2022-12-03T00:43:08.123Z,25.83
2022-12-03T00:44:10.460Z,26.83
2022-12-03T00:45:12.427Z,28.30
2022-12-03T00:46:19.674Z,27.23
2022-12-03T00:47:22.965Z,28.10
2022-12-03T00:48:24.735Z,30.33
2022-12-03T00:49:27.072Z,28.10
2022-12-03T00:50:28.962Z,30.80
2022-12-03T00:51:30.660Z,26.37
2022-12-03T00:52:32.409Z,25.47
2022-12-03T00:53:35.619Z,31.17
2022-12-03T00:54:37.398Z,31.00
2022-12-03T00:55:39.129Z,29.83
2022-12-03T00:56:41.382Z,31.00
2022-12-03T00:57:43.763Z,29.67
2022-12-03T00:58:46.213Z,28.30
2022-12-03T00:59:47.944Z,31.00
2022-12-03T01:00:49.637Z,28.73
2022-12-03T01:01:51.475Z,28.63
2022-12-03T01:02:53.417Z,34.07
2022-12-03T01:03:55.184Z,31.47
2022-12-03T01:04:57.297Z,27.70
2022-12-03T01:05:59.138Z,31.47
2022-12-03T01:07:01.347Z,31.47
2022-12-03T01:08:03.245Z,30.67
2022-12-03T01:09:05.054Z,27.90
2022-12-03T01:10:07.504Z,29.37
2022-12-03T01:11:29.126Z,30.07
2022-12-03T01:12:30.882Z,28.77
2022-12-03T01:13:32.603Z,30.37
2022-12-03T01:14:34.320Z,36.10
2022-12-03T01:15:36.286Z,30.60
2022-12-03T01:16:39.077Z,29.60
2022-12-03T01:17:40.801Z,32.43
2022-12-03T01:18:42.577Z,34.70
2022-12-03T01:19:48.274Z,28.93
2022-12-03T01:20:50.420Z,30.87
2022-12-03T01:21:52.631Z,32.53
2022-12-03T01:22:54.640Z,28.33
2022-12-03T01:23:57.052Z,27.90
2022-12-03T01:24:58.833Z,32.60
2022-12-03T01:26:00.509Z,30.60
2022-12-03T01:27:02.207Z,30.10
2022-12-03T01:28:03.979Z,32.07
2022-12-03T01:29:06.691Z,29.57
2022-12-03T01:30:10.949Z,30.10
2022-12-03T01:31:31.715Z,28.60
2022-12-03T01:32:33.698Z,31.40
2022-12-03T01:33:35.498Z,32.00
2022-12-03T01:34:37.265Z,30.60
2022-12-03T01:35:39.061Z,31.47
2022-12-03T01:36:41.440Z,29.73
2022-12-03T01:37:43.294Z,29.20
2022-12-03T01:38:45.048Z,31.03
2022-12-03T01:39:47.206Z,30.27
2022-12-03T01:40:49.932Z,32.53
2022-12-03T01:41:53.174Z,34.83
2022-12-03T01:42:55.217Z,33.20
2022-12-03T01:43:58.301Z,32.17
2022-12-03T01:45:00.726Z,32.13
2022-12-03T01:46:02.681Z,30.00
2022-12-03T01:47:06.905Z,29.10
2022-12-03T01:48:13.210Z,29.53
2022-12-03T01:49:31.421Z,31.50
2022-12-03T01:50:33.946Z,29.30
2022-12-03T01:51:35.927Z,28.30
2022-12-03T01:52:39.204Z,29.93
2022-12-03T01:53:41.599Z,31.00
2022-12-03T01:54:48.047Z,30.83
2022-12-03T01:55:49.844Z,29.70
2022-12-03T01:56:51.793Z,28.03
2022-12-03T01:57:56.898Z,30.87
2022-12-03T01:58:58.783Z,29.30
2022-12-03T02:00:01.262Z,34.03
2022-12-03T02:01:10.576Z,31.77
2022-12-03T02:02:14.767Z,31.00
2022-12-03T02:03:23.820Z,33.20
2022-12-03T02:04:25.637Z,31.50
2022-12-03T02:05:32.786Z,31.33
2022-12-03T02:06:34.666Z,31.27
2022-12-03T02:07:36.445Z,33.63
2022-12-03T02:08:40.131Z,31.30
2022-12-03T02:09:41.885Z,35.80
2022-12-03T02:10:43.580Z,31.53
2022-12-03T02:11:48.266Z,31.40
2022-12-03T02:12:53.364Z,29.50
2022-12-03T02:14:00.214Z,28.90
2022-12-03T02:15:02.905Z,30.93
2022-12-03T02:16:04.922Z,28.60
2022-12-03T02:17:07.637Z,28.57
2022-12-03T02:18:10.080Z,33.53
2022-12-03T02:19:24.981Z,31.43
2022-12-03T02:20:27.189Z,28.27
2022-12-03T02:21:28.845Z,32.03
2022-12-03T02:22:59.299Z,33.43
2022-12-03T02:24:47.131Z,29.80
2022-12-03T02:25:48.965Z,27.73
2022-12-03T02:26:50.754Z,28.37
2022-12-03T02:27:54.723Z,30.23
2022-12-03T02:28:57.118Z,31.40
2022-12-03T02:29:58.918Z,29.73
2022-12-03T02:31:00.717Z,31.10
2022-12-03T02:32:02.580Z,32.87
2022-12-03T02:33:04.916Z,32.47
2022-12-03T02:34:07.839Z,34.50
2022-12-03T02:35:17.943Z,31.90
2022-12-03T02:36:20.051Z,34.33
2022-12-03T02:37:32.326Z,36.57
2022-12-03T02:38:35.742Z,32.90
2022-12-03T02:39:40.956Z,31.27
2022-12-03T02:40:44.577Z,35.80
2022-12-03T02:42:04.835Z,32.57
2022-12-03T02:43:06.553Z,30.57
2022-12-03T02:44:09.162Z,36.03
2022-12-03T02:45:42.546Z,33.87
2022-12-03T02:46:44.354Z,31.60
2022-12-03T02:47:55.037Z,34.60
2022-12-03T02:48:57.388Z,37.60
2022-12-03T02:49:59.927Z,38.67
2022-12-03T02:51:05.183Z,39.73
2022-12-03T02:52:07.118Z,37.30
2022-12-03T02:53:20.155Z,36.30
2022-12-03T02:54:22.041Z,34.40
2022-12-03T02:55:24.383Z,35.70
2022-12-03T02:56:29.976Z,34.87
2022-12-03T02:57:32.197Z,32.13
2022-12-03T02:58:34.453Z,30.83
2022-12-03T02:59:36.200Z,34.37
2022-12-03T03:00:38.451Z,33.40
2022-12-03T03:01:40.362Z,30.83
2022-12-03T03:02:43.345Z,30.87
2022-12-03T03:03:47.228Z,29.50
2022-12-03T03:04:49.420Z,33.87
2022-12-03T03:05:51.693Z,33.00
2022-12-03T03:06:53.447Z,32.50
2022-12-03T03:07:58.277Z,37.03
2022-12-03T03:09:00.386Z,31.47
2022-12-03T03:10:03.207Z,34.67
2022-12-03T03:11:05.212Z,31.20
2022-12-03T03:12:07.091Z,30.63
2022-12-03T03:13:14.764Z,31.10
2022-12-03T03:14:16.552Z,35.03
2022-12-03T03:15:18.342Z,35.47
2022-12-03T03:16:20.177Z,33.40
2022-12-03T03:17:22.145Z,36.73
2022-12-03T03:18:24.093Z,38.63
2022-12-03T03:19:26.748Z,31.93
2022-12-03T03:20:28.571Z,30.40
2022-12-03T03:21:30.369Z,33.20
2022-12-03T03:22:38.222Z,30.93
2022-12-03T03:23:40.019Z,29.00
2022-12-03T03:24:41.775Z,32.67
2022-12-03T03:25:51.617Z,35.03
2022-12-03T03:26:53.492Z,32.73
2022-12-03T03:27:55.239Z,30.27
2022-12-03T03:29:00.264Z,28.03
2022-12-03T03:30:02.141Z,29.30
2022-12-03T03:31:05.645Z,28.63
2022-12-03T03:32:07.421Z,28.63
2022-12-03T03:33:09.981Z,29.80
2022-12-03T03:34:12.460Z,26.90
2022-12-03T03:35:14.756Z,28.00
2022-12-03T03:36:17.232Z,29.13
2022-12-03T03:37:19.084Z,28.20
2022-12-03T03:38:22.096Z,26.43
2022-12-03T03:39:24.234Z,29.20
2022-12-03T03:40:26.780Z,28.93
2022-12-03T03:41:29.911Z,27.67
2022-12-03T03:42:31.635Z,30.53
2022-12-03T03:43:34.949Z,30.97
2022-12-03T03:44:36.756Z,27.90
2022-12-03T03:45:38.584Z,28.13
2022-12-03T03:46:41.145Z,26.23
2022-12-03T03:47:43.269Z,31.30
2022-12-03T03:48:45.552Z,30.93
2022-12-03T03:49:49.562Z,28.27
2022-12-03T03:50:51.937Z,24.63
2022-12-03T03:51:53.873Z,28.60
2022-12-03T03:52:56.666Z,30.33
2022-12-03T03:53:58.592Z,30.03
2022-12-03T03:55:00.587Z,30.70
2022-12-03T03:56:02.441Z,32.57
2022-12-03T03:57:04.550Z,30.27
2022-12-03T03:58:06.643Z,29.43
2022-12-03T03:59:08.474Z,27.97
2022-12-03T04:00:10.984Z,29.17
2022-12-03T04:01:14.308Z,33.90
2022-12-03T04:02:20.680Z,31.27
2022-12-03T04:03:22.395Z,29.20
2022-12-03T04:04:29.176Z,28.50
2022-12-03T04:05:31.281Z,29.67
2022-12-03T04:06:33.016Z,31.77
2022-12-03T04:07:34.772Z,32.57
2022-12-03T04:08:36.454Z,29.90
2022-12-03T04:09:38.161Z,28.03
2022-12-03T04:10:58.345Z,28.53
2022-12-03T04:12:18.617Z,29.40
2022-12-03T04:13:20.504Z,29.37
2022-12-03T04:14:22.218Z,28.00
2022-12-03T04:15:25.172Z,29.00
2022-12-03T04:16:27.013Z,30.70
2022-12-03T04:17:28.837Z,24.97
2022-12-03T04:18:42.814Z,25.63
2022-12-03T04:19:44.596Z,28.47
2022-12-03T04:20:46.341Z,28.23
2022-12-03T04:22:06.801Z,26.70
2022-12-03T04:23:09.061Z,33.07
2022-12-03T04:24:11.788Z,27.40
2022-12-03T04:25:32.045Z,28.50
2022-12-03T04:26:52.486Z,28.30
2022-12-03T04:28:13.115Z,25.97
2022-12-03T04:29:15.039Z,26.07
2022-12-03T04:30:16.855Z,26.97
2022-12-03T04:31:37.031Z,25.40
2022-12-03T04:32:57.534Z,27.87
2022-12-03T04:34:17.983Z,29.80
2022-12-03T04:35:38.629Z,27.73
2022-12-03T04:36:40.462Z,23.70
2022-12-03T04:37:42.198Z,30.43
2022-12-03T04:38:43.943Z,30.53
2022-12-03T04:39:45.649Z,29.83
2022-12-03T04:41:00.678Z,28.30
2022-12-03T04:42:03.253Z,28.27
2022-12-03T04:43:04.955Z,28.30
2022-12-03T04:44:25.199Z,33.13
2022-12-03T04:45:26.941Z,28.83
2022-12-03T04:46:28.811Z,28.90
2022-12-03T04:47:32.345Z,32.30
2022-12-03T04:48:37.144Z,29.07
2022-12-03T04:49:43.908Z,28.27
2022-12-03T04:50:46.174Z,29.20
2022-12-03T04:51:48.007Z,25.37
2022-12-03T04:52:49.714Z,29.77
2022-12-03T04:53:51.416Z,29.07
2022-12-03T04:54:53.408Z,29.97
2022-12-03T04:55:55.343Z,28.87
2022-12-03T04:56:57.197Z,31.87
2022-12-03T04:57:59.267Z,27.27
2022-12-03T04:59:01.058Z,30.20
2022-12-03T05:00:04.165Z,27.73
2022-12-03T05:01:05.912Z,29.80
2022-12-03T05:02:08.587Z,29.77
2022-12-03T05:03:10.440Z,30.17
2022-12-03T05:04:13.563Z,31.97
2022-12-03T05:05:15.577Z,29.43
2022-12-03T05:06:17.307Z,29.97
2022-12-03T05:07:18.988Z,27.30
2022-12-03T05:08:20.754Z,30.77
2022-12-03T05:09:22.633Z,29.03
2022-12-03T05:10:24.437Z,28.93
2022-12-03T05:11:26.208Z,31.10
2022-12-03T05:12:27.958Z,31.10
2022-12-03T05:13:29.649Z,29.33
2022-12-03T05:14:31.335Z,30.33
2022-12-03T05:15:33.047Z,28.10
2022-12-03T05:16:35.008Z,28.83
2022-12-03T05:17:36.927Z,31.33
2022-12-03T05:18:38.639Z,26.23
2022-12-03T05:19:59.270Z,24.90
2022-12-03T05:21:00.939Z,29.63
2022-12-03T05:22:02.635Z,31.53
2022-12-03T05:23:04.410Z,31.07
2022-12-03T05:24:06.469Z,32.67
2022-12-03T05:25:08.692Z,27.30
2022-12-03T05:26:10.956Z,28.50
2022-12-03T05:27:12.706Z,26.20
2022-12-03T05:28:14.691Z,27.00
2022-12-03T05:29:16.408Z,25.10
2022-12-03T05:30:18.084Z,24.63
2022-12-03T05:31:19.822Z,27.03
2022-12-03T05:32:21.592Z,27.63
2022-12-03T05:33:23.332Z,28.13
2022-12-03T05:34:25.078Z,27.90
2022-12-03T05:35:26.988Z,29.13
2022-12-03T05:36:28.687Z,26.37
2022-12-03T05:37:30.605Z,27.90
2022-12-03T05:38:32.447Z,25.43
2022-12-03T05:39:34.248Z,27.50
2022-12-03T05:40:35.936Z,25.93
2022-12-03T05:41:56.150Z,29.00
2022-12-03T05:42:58.008Z,26.77
2022-12-03T05:43:59.699Z,27.63
2022-12-03T05:45:01.408Z,24.73
2022-12-03T05:46:03.255Z,30.47
2022-12-03T05:47:05.058Z,26.70
2022-12-03T05:48:09.986Z,25.77
2022-12-03T05:49:11.745Z,28.27
2022-12-03T05:50:13.769Z,27.87
2022-12-03T05:51:16.209Z,26.63
2022-12-03T05:52:17.911Z,27.70
2022-12-03T05:53:19.622Z,29.07
2022-12-03T05:54:21.367Z,27.13
2022-12-03T05:55:23.368Z,30.40
2022-12-03T05:56:25.115Z,27.93
2022-12-03T05:57:26.822Z,26.73
2022-12-03T05:58:28.585Z,28.23
2022-12-03T05:59:30.410Z,29.07
2022-12-03T06:00:42.401Z,27.40
2022-12-03T06:01:44.840Z,26.17
2022-12-03T06:02:46.678Z,28.47
2022-12-03T06:03:48.641Z,29.97
2022-12-03T06:04:50.658Z,26.97
2022-12-03T06:05:52.676Z,24.37
2022-12-03T06:06:54.452Z,26.07
2022-12-03T06:07:56.281Z,31.67
2022-12-03T06:08:57.973Z,26.67
2022-12-03T06:09:59.654Z,29.47
2022-12-03T06:11:01.423Z,25.80
2022-12-03T06:12:04.291Z,28.97
2022-12-03T06:13:06.058Z,29.87
2022-12-03T06:14:08.021Z,26.93
2022-12-03T06:15:10.823Z,28.00
2022-12-03T06:16:12.683Z,28.33
2022-12-03T06:17:14.569Z,26.83
2022-12-03T06:18:16.263Z,26.13
2022-12-03T06:19:18.172Z,28.50
2022-12-03T06:20:20.918Z,29.97
2022-12-03T06:21:22.675Z,34.87
2022-12-03T06:22:24.439Z,27.23
2022-12-03T06:23:26.161Z,28.00
2022-12-03T06:24:28.060Z,26.50
2022-12-03T06:25:29.795Z,28.37
2022-12-03T06:26:31.513Z,27.47
2022-12-03T06:27:33.372Z,27.60
2022-12-03T06:28:35.119Z,28.70
2022-12-03T06:29:36.893Z,29.63
2022-12-03T06:30:38.644Z,25.50
2022-12-03T06:31:40.501Z,28.10
2022-12-03T06:32:42.265Z,28.00
2022-12-03T06:33:43.963Z,28.07
2022-12-03T06:34:45.724Z,31.33
2022-12-03T06:35:47.508Z,28.43
2022-12-03T06:36:50.203Z,32.93
2022-12-03T06:37:52.028Z,26.30
2022-12-03T06:38:56.314Z,28.13
2022-12-03T06:39:58.135Z,30.93
2022-12-03T06:40:59.939Z,30.23
2022-12-03T06:42:01.774Z,28.57
2022-12-03T06:43:03.551Z,30.23
2022-12-03T06:44:05.491Z,31.30
2022-12-03T06:45:07.418Z,28.13
2022-12-03T06:46:09.203Z,31.60
2022-12-03T06:47:10.984Z,28.90
2022-12-03T06:48:12.639Z,29.27
2022-12-03T06:49:14.389Z,29.90
2022-12-03T06:50:16.227Z,29.20
2022-12-03T06:51:17.908Z,28.27
2022-12-03T06:52:19.799Z,28.00
2022-12-03T06:53:21.534Z,31.97
2022-12-03T06:54:23.349Z,28.00
2022-12-03T06:55:25.132Z,26.63
2022-12-03T06:56:31.159Z,29.03
2022-12-03T06:57:37.078Z,27.43
2022-12-03T06:58:38.739Z,28.43
2022-12-03T06:59:40.490Z,28.73
2022-12-03T07:00:42.202Z,27.07
2022-12-03T07:01:44.305Z,29.93
2022-12-03T07:02:46.144Z,27.60
2022-12-03T07:03:47.954Z,29.20
2022-12-03T07:04:49.676Z,28.20
2022-12-03T07:05:51.436Z,31.83
2022-12-03T07:06:53.201Z,31.00
2022-12-03T07:07:55.450Z,30.60
2022-12-03T07:08:57.366Z,30.17
2022-12-03T07:09:59.264Z,28.90
2022-12-03T07:11:01.211Z,29.90
2022-12-03T07:12:02.943Z,31.57
2022-12-03T07:13:04.656Z,28.90
2022-12-03T07:14:07.859Z,31.13
2022-12-03T07:15:10.383Z,31.03
2022-12-03T07:16:12.218Z,28.10
2022-12-03T07:17:14.145Z,27.47
2022-12-03T07:18:16.005Z,29.10
2022-12-03T07:19:17.748Z,27.90
2022-12-03T07:20:19.848Z,30.33
2022-12-03T07:21:21.595Z,27.13
2022-12-03T07:22:23.299Z,29.03
2022-12-03T07:23:25.022Z,30.67
2022-12-03T07:24:26.806Z,27.57
2022-12-03T07:25:28.992Z,29.67
2022-12-03T07:26:30.746Z,30.87
2022-12-03T07:27:32.495Z,29.93
2022-12-03T07:28:34.705Z,31.13
2022-12-03T07:29:36.411Z,29.63
2022-12-03T07:30:38.155Z,27.57
2022-12-03T07:31:39.884Z,27.40
2022-12-03T07:32:41.895Z,29.00
2022-12-03T07:33:43.622Z,26.67
2022-12-03T07:34:45.332Z,28.27
2022-12-03T07:35:47.012Z,29.77
2022-12-03T07:36:48.718Z,28.70
2022-12-03T07:37:50.453Z,28.63
2022-12-03T07:38:52.163Z,28.17
2022-12-03T07:39:54.619Z,30.27
2022-12-03T07:40:56.361Z,31.13
2022-12-03T07:41:58.144Z,28.77
2022-12-03T07:42:59.843Z,30.60
2022-12-03T07:44:01.568Z,30.27
2022-12-03T07:45:03.951Z,27.07
2022-12-03T07:46:05.861Z,27.20
2022-12-03T07:47:07.670Z,32.50
2022-12-03T07:48:09.446Z,31.77
2022-12-03T07:49:12.354Z,30.50
2022-12-03T07:50:14.234Z,31.57
2022-12-03T07:51:16.103Z,35.77
2022-12-03T07:52:17.789Z,40.10
2022-12-03T07:53:19.561Z,35.43
2022-12-03T07:54:21.827Z,34.20
2022-12-03T07:55:25.169Z,31.37
2022-12-03T07:56:26.944Z,34.70
2022-12-03T07:57:28.660Z,35.00
2022-12-03T07:58:30.848Z,31.73
2022-12-03T07:59:32.666Z,34.23
2022-12-03T08:00:34.506Z,35.73
2022-12-03T08:01:36.385Z,33.37
2022-12-03T08:02:38.406Z,37.40
2022-12-03T08:03:40.116Z,41.73
2022-12-03T08:04:41.833Z,39.13
2022-12-03T08:05:43.626Z,39.47
2022-12-03T08:06:46.007Z,44.93
2022-12-03T08:07:47.846Z,41.77
2022-12-03T08:08:49.634Z,41.00
2022-12-03T08:09:51.413Z,42.77
2022-12-03T08:10:53.139Z,36.47
2022-12-03T08:11:55.564Z,43.50
2022-12-03T08:12:59.088Z,37.73
2022-12-03T08:14:00.839Z,35.37
2022-12-03T08:15:05.487Z,34.63
2022-12-03T08:16:25.779Z,35.30
2022-12-03T08:17:28.460Z,30.53
2022-12-03T08:18:30.288Z,29.23
2022-12-03T08:19:31.958Z,35.37
2022-12-03T08:20:37.901Z,29.50
2022-12-03T08:21:40.230Z,29.50
2022-12-03T08:22:43.871Z,28.23
2022-12-03T08:23:45.694Z,29.27
2022-12-03T08:24:47.397Z,27.80
2022-12-03T08:25:51.330Z,28.57
2022-12-03T08:26:53.099Z,29.27
2022-12-03T08:28:03.448Z,26.20
2022-12-03T08:29:13.852Z,25.53
2022-12-03T08:30:17.328Z,25.47
2022-12-03T08:31:32.367Z,26.40
2022-12-03T08:32:34.817Z,26.20
2022-12-03T08:33:38.119Z,28.13
2022-12-03T08:34:44.178Z,27.63
2022-12-03T08:35:50.470Z,27.07
2022-12-03T08:36:58.772Z,28.37
2022-12-03T08:38:12.639Z,29.07
2022-12-03T08:39:35.795Z,27.00
2022-12-03T08:40:41.786Z,27.03
2022-12-03T08:42:02.025Z,24.17
2022-12-03T08:43:17.943Z,25.17
2022-12-03T08:44:25.594Z,26.83
2022-12-03T08:45:32.850Z,26.93
2022-12-03T08:46:34.550Z,26.87
2022-12-03T08:47:36.257Z,30.67
2022-12-03T08:48:40.715Z,28.67
2022-12-03T08:49:51.699Z,30.80
2022-12-03T08:50:55.932Z,29.03
2022-12-03T08:52:00.783Z,29.87
2022-12-03T08:53:14.520Z,27.37
2022-12-03T08:54:20.058Z,29.03
2022-12-03T08:55:51.668Z,30.73
2022-12-03T08:56:53.475Z,29.33
2022-12-03T08:57:55.170Z,31.63
2022-12-03T08:59:03.226Z,32.67
2022-12-03T09:00:23.668Z,31.63
2022-12-03T09:01:38.455Z,29.90
2022-12-03T09:02:47.372Z,30.40
2022-12-03T09:03:54.772Z,36.17
2022-12-03T09:04:56.881Z,31.03
2022-12-03T09:05:58.781Z,27.67
2022-12-03T09:07:00.811Z,33.37
2022-12-03T09:08:02.583Z,32.17
2022-12-03T09:09:06.918Z,30.23
2022-12-03T09:10:09.506Z,31.50
2022-12-03T09:11:11.211Z,29.90
2022-12-03T09:12:12.931Z,30.53
2022-12-03T09:13:14.655Z,31.90
2022-12-03T09:14:19.000Z,33.60
2022-12-03T09:15:20.877Z,30.20
2022-12-03T09:16:22.805Z,29.30
2022-12-03T09:17:26.596Z,30.53
2022-12-03T09:18:28.404Z,31.77
2022-12-03T09:19:31.208Z,31.07
2022-12-03T09:20:33.039Z,36.13
2022-12-03T09:21:34.797Z,42.23
2022-12-03T09:22:36.636Z,37.50
2022-12-03T09:23:38.656Z,32.93
2022-12-03T09:24:40.340Z,29.53
2022-12-03T09:25:42.035Z,26.90
2022-12-03T09:26:43.775Z,27.37
2022-12-03T09:27:45.841Z,32.17
2022-12-03T09:28:48.271Z,27.97
2022-12-03T09:29:51.100Z,26.43
2022-12-03T09:30:52.812Z,27.77
2022-12-03T09:31:54.549Z,30.13
2022-12-03T09:32:56.423Z,27.93
2022-12-03T09:33:58.200Z,26.27
2022-12-03T09:34:59.963Z,25.13
2022-12-03T09:36:01.783Z,29.00
2022-12-03T09:37:03.548Z,29.73
2022-12-03T09:38:05.302Z,28.67
2022-12-03T09:39:07.093Z,26.10
2022-12-03T09:40:09.740Z,28.23
2022-12-03T09:41:11.613Z,27.87
2022-12-03T09:42:13.530Z,27.23
2022-12-03T09:43:15.867Z,25.67
2022-12-03T09:44:18.424Z,23.43
2022-12-03T09:45:20.426Z,25.13
2022-12-03T09:46:22.888Z,25.70
2022-12-03T09:47:25.243Z,22.73
2022-12-03T09:48:27.034Z,25.20
2022-12-03T09:49:30.450Z,25.53
2022-12-03T09:50:32.444Z,25.50
2022-12-03T09:51:36.108Z,28.63
2022-12-03T09:52:38.342Z,25.70
2022-12-03T09:53:41.460Z,26.57
2022-12-03T09:54:47.271Z,25.47
2022-12-03T09:55:49.752Z,29.20
2022-12-03T09:56:53.414Z,26.70
2022-12-03T09:57:56.985Z,23.50
2022-12-03T09:58:59.176Z,23.67
2022-12-03T10:00:00.858Z,23.17
2022-12-03T10:01:02.659Z,25.83
2022-12-03T10:02:16.911Z,22.87
2022-12-03T10:03:29.539Z,23.10
2022-12-03T10:04:31.747Z,24.27
2022-12-03T10:05:34.679Z,21.50
2022-12-03T10:06:39.871Z,24.30
2022-12-03T10:07:46.851Z,21.63
2022-12-03T10:08:51.877Z,22.90
2022-12-03T10:09:53.804Z,19.33
2022-12-03T10:10:56.670Z,22.43
2022-12-03T10:11:59.813Z,22.27
2022-12-03T10:13:02.074Z,23.03
2022-12-03T10:14:04.756Z,20.60
2022-12-03T10:15:09.972Z,24.13
2022-12-03T10:16:15.344Z,22.33
2022-12-03T10:17:17.497Z,21.73
2022-12-03T10:18:31.061Z,22.27
2022-12-03T10:19:35.811Z,19.63
2022-12-03T10:20:37.634Z,21.17
2022-12-03T10:21:39.645Z,25.47
2022-12-03T10:22:41.386Z,22.83
2022-12-03T10:23:43.737Z,26.60
2022-12-03T10:24:45.534Z,23.00
2022-12-03T10:25:59.738Z,25.70
2022-12-03T10:27:28.947Z,22.83
2022-12-03T10:28:39.190Z,23.00
2022-12-03T10:29:40.943Z,24.50
2022-12-03T10:30:55.535Z,24.50
2022-12-03T10:32:01.785Z,23.30
2022-12-03T10:33:18.481Z,22.37
2022-12-03T10:34:41.303Z,21.20
2022-12-03T10:35:42.986Z,20.30
2022-12-03T10:36:44.670Z,22.20
2022-12-03T10:38:04.455Z,24.77
2022-12-03T10:39:08.924Z,22.63
2022-12-03T10:40:13.875Z,20.63
2022-12-03T10:41:27.554Z,23.00
2022-12-03T10:42:31.907Z,21.70
2022-12-03T10:43:33.572Z,20.27
2022-12-03T10:44:35.261Z,26.00
2022-12-03T10:45:37.022Z,22.70
2022-12-03T10:46:38.976Z,22.30
2022-12-03T10:47:41.727Z,23.80
2022-12-03T10:48:43.733Z,25.13
2022-12-03T10:50:00.811Z,26.70
2022-12-03T10:51:26.660Z,22.33
2022-12-03T10:52:28.358Z,23.20
2022-12-03T10:53:32.742Z,24.73
2022-12-03T10:54:35.244Z,23.97
2022-12-03T10:55:39.969Z,22.93
2022-12-03T10:56:41.806Z,21.23
2022-12-03T10:57:45.922Z,23.60
2022-12-03T10:58:48.072Z,23.40
2022-12-03T10:59:49.876Z,20.90
2022-12-03T11:00:53.365Z,21.07
2022-12-03T11:01:55.321Z,21.37
2022-12-03T11:02:57.522Z,20.60
2022-12-03T11:04:04.701Z,22.47
2022-12-03T11:05:06.825Z,23.70
2022-12-03T11:06:20.181Z,22.13
2022-12-03T11:07:23.867Z,23.87
2022-12-03T11:08:28.836Z,23.23
2022-12-03T11:09:33.252Z,22.40
2022-12-03T11:10:35.391Z,21.20
2022-12-03T11:11:37.234Z,20.37
2022-12-03T11:12:39.005Z,19.53
2022-12-03T11:13:40.697Z,22.80
2022-12-03T11:14:52.169Z,22.73
2022-12-03T11:15:54.599Z,26.30
2022-12-03T11:16:56.323Z,21.60
2022-12-03T11:17:58.337Z,22.97
2022-12-03T11:19:01.449Z,23.23
2022-12-03T11:20:03.632Z,22.53
2022-12-03T11:21:11.154Z,24.80
2022-12-03T11:22:12.866Z,23.80
2022-12-03T11:23:14.543Z,20.63
2022-12-03T11:24:19.747Z,23.13
2022-12-03T11:25:27.286Z,24.50
2022-12-03T11:26:28.899Z,19.30
2022-12-03T11:27:30.660Z,22.60
2022-12-03T11:28:34.320Z,21.77
2022-12-03T11:29:55.376Z,20.93
2022-12-03T11:31:02.327Z,29.17
2022-12-03T11:32:04.314Z,21.97
2022-12-03T11:33:21.624Z,21.33
2022-12-03T11:34:40.537Z,22.50
2022-12-03T11:36:31.669Z,21.37
2022-12-03T11:37:41.601Z,22.83
2022-12-03T11:38:52.860Z,20.90
2022-12-03T11:39:59.850Z,21.83
2022-12-03T11:41:07.763Z,21.10
2022-12-03T11:42:27.268Z,20.00
2022-12-03T11:43:55.933Z,22.30
2022-12-03T11:45:06.528Z,21.20
2022-12-03T11:46:10.583Z,21.33
2022-12-03T11:47:16.002Z,21.97
2022-12-03T11:48:18.658Z,19.80
2022-12-03T11:49:30.994Z,22.70
2022-12-03T11:50:40.445Z,20.57
2022-12-03T11:51:44.751Z,19.43
2022-12-03T11:52:49.561Z,20.03
2022-12-03T11:53:53.935Z,20.80
2022-12-03T11:55:13.818Z,18.17
2022-12-03T11:56:22.473Z,20.93
2022-12-03T11:57:31.300Z,20.17
2022-12-03T11:58:35.223Z,19.70
2022-12-03T11:59:56.120Z,19.93
2022-12-03T12:01:00.318Z,20.57
2022-12-03T12:02:19.747Z,21.53
2022-12-03T12:03:44.553Z,23.13
2022-12-03T12:04:49.078Z,21.47
2022-12-03T12:06:18.544Z,24.40
2022-12-03T12:07:38.556Z,18.97
2022-12-03T12:08:54.415Z,23.70
2022-12-03T12:09:57.151Z,18.13
2022-12-03T12:10:59.469Z,22.67
2022-12-03T12:12:18.998Z,20.83
2022-12-03T12:13:33.735Z,20.37
2022-12-03T12:14:35.455Z,19.13
2022-12-03T12:15:40.246Z,20.80
2022-12-03T12:16:45.965Z,18.77
2022-12-03T12:17:47.751Z,19.20
2022-12-03T12:18:55.227Z,18.43
2022-12-03T12:20:24.550Z,17.10
2022-12-03T12:21:49.948Z,20.87
2022-12-03T12:22:54.130Z,22.17
2022-12-03T12:23:55.923Z,18.83
2022-12-03T12:24:58.538Z,20.40
2022-12-03T12:26:06.652Z,20.43
2022-12-03T12:27:10.997Z,20.23
2022-12-03T12:28:12.716Z,21.97
2022-12-03T12:29:14.453Z,20.67
2022-12-03T12:30:19.726Z,21.17
2022-12-03T12:31:21.589Z,22.80
2022-12-03T12:32:26.500Z,22.30
2022-12-03T12:33:28.222Z,21.40
2022-12-03T12:34:31.292Z,20.77
2022-12-03T12:35:33.022Z,21.20
2022-12-03T12:36:34.996Z,21.47
2022-12-03T12:37:59.149Z,21.23
2022-12-03T12:39:01.676Z,21.50
2022-12-03T12:40:13.288Z,22.17
2022-12-03T12:41:15.023Z,19.50
2022-12-03T12:42:35.251Z,21.93
2022-12-03T12:43:39.498Z,19.40
2022-12-03T12:44:41.805Z,20.60
2022-12-03T12:45:44.104Z,20.20
2022-12-03T12:46:48.661Z,20.97
2022-12-03T12:48:01.839Z,19.90
2022-12-03T12:49:11.463Z,23.87
2022-12-03T12:50:14.739Z,22.63
2022-12-03T12:51:18.797Z,21.23
2022-12-03T12:52:20.519Z,20.60
2022-12-03T12:53:32.178Z,23.20
2022-12-03T12:54:33.957Z,25.17
2022-12-03T12:55:35.623Z,21.13
2022-12-03T12:56:37.566Z,20.77
2022-12-03T12:57:39.417Z,23.77
2022-12-03T12:58:42.174Z,24.00
2022-12-03T12:59:43.873Z,24.70
2022-12-03T13:00:59.125Z,20.30
2022-12-03T13:02:04.596Z,22.70
2022-12-03T13:03:12.280Z,23.17
2022-12-03T13:04:22.592Z,23.27
2022-12-03T13:05:27.593Z,19.30
2022-12-03T13:06:31.456Z,23.20
2022-12-03T13:07:33.312Z,21.30
2022-12-03T13:08:42.071Z,23.90
2022-12-03T13:09:43.908Z,23.80
2022-12-03T13:10:45.865Z,22.17
2022-12-03T13:11:52.881Z,25.13
2022-12-03T13:12:54.771Z,20.97
2022-12-03T13:13:56.449Z,23.10
2022-12-03T13:15:00.857Z,22.97
2022-12-03T13:16:07.147Z,24.07
2022-12-03T13:17:18.661Z,22.47
2022-12-03T13:18:40.441Z,22.27
2022-12-03T13:19:48.260Z,20.30
2022-12-03T13:20:54.124Z,20.00
2022-12-03T13:21:58.463Z,21.00
2022-12-03T13:23:00.154Z,20.07
2022-12-03T13:24:02.020Z,21.40
2022-12-03T13:25:57.344Z,22.73
2022-12-03T13:26:52.013Z,24.53
2022-12-03T13:27:53.782Z,25.23
2022-12-03T13:28:57.740Z,20.03
2022-12-03T13:30:02.040Z,19.83
2022-12-03T13:31:31.483Z,20.60
2022-12-03T13:32:40.856Z,22.67
2022-12-03T13:33:42.804Z,22.83
2022-12-03T13:34:45.041Z,19.00
2022-12-03T13:35:46.878Z,20.50
2022-12-03T13:36:55.360Z,22.47
2022-12-03T13:37:59.606Z,22.33
2022-12-03T13:39:02.251Z,21.10
2022-12-03T13:40:26.027Z,23.00
2022-12-03T13:41:46.915Z,24.43
2022-12-03T13:42:48.663Z,22.43
2022-12-03T13:43:50.326Z,23.20
2022-12-03T13:44:53.277Z,22.70
2022-12-03T13:45:55.046Z,23.73
2022-12-03T13:46:56.809Z,21.37
2022-12-03T13:48:01.638Z,22.17
2022-12-03T13:49:03.472Z,20.50
2022-12-03T13:50:22.357Z,21.30
2022-12-03T13:51:27.158Z,24.30
2022-12-03T13:52:34.206Z,21.73